createdAt,value
2023-02-19T00:00:28.413Z,2.75
2023-02-19T00:04:20.300Z,2.45
2023-02-19T00:08:02.312Z,2.45
2023-02-19T00:11:44.612Z,1.83
2023-02-19T00:15:26.744Z,2.00
2023-02-19T00:19:12.796Z,1.55
2023-02-19T00:22:54.745Z,1.73
2023-02-19T00:26:40.172Z,2.00
2023-02-19T00:30:22.220Z,1.60
2023-02-19T00:34:06.171Z,1.88
2023-02-19T00:37:48.242Z,1.85
2023-02-19T00:41:30.713Z,2.33
2023-02-19T00:45:12.721Z,1.50
2023-02-19T00:48:55.591Z,1.63
2023-02-19T00:52:37.589Z,1.80
2023-02-19T00:56:19.918Z,2.50
2023-02-19T01:00:01.935Z,2.53
2023-02-19T01:03:44.377Z,2.63
2023-02-19T01:07:26.636Z,3.03
2023-02-19T01:11:10.002Z,2.70
2023-02-19T01:14:52.358Z,2.97
2023-02-19T01:18:35.756Z,3.10
2023-02-19T01:22:17.791Z,2.70
2023-02-19T01:25:59.914Z,2.63
2023-02-19T01:29:43.393Z,2.33
2023-02-19T01:33:25.402Z,2.35
2023-02-19T01:37:11.992Z,2.80
2023-02-19T01:40:59.700Z,2.35
2023-02-19T01:44:47.983Z,2.10
2023-02-19T01:48:37.950Z,2.47
2023-02-19T01:52:34.525Z,1.73
2023-02-19T01:56:42.806Z,1.50
2023-02-19T02:00:24.994Z,1.60
2023-02-19T02:04:11.146Z,1.67
2023-02-19T02:08:11.827Z,1.58
2023-02-19T02:11:54.154Z,1.38
2023-02-19T02:15:57.468Z,1.58
2023-02-19T02:20:13.476Z,1.05
2023-02-19T02:24:01.217Z,1.27
2023-02-19T02:28:17.286Z,1.50
2023-02-19T02:32:11.813Z,1.17
2023-02-19T02:36:19.956Z,1.23
2023-02-19T02:40:03.676Z,1.80
2023-02-19T02:43:45.696Z,1.35
2023-02-19T02:47:43.075Z,2.00
2023-02-19T02:51:25.013Z,1.50
2023-02-19T02:55:11.146Z,1.23
2023-02-19T02:58:54.917Z,1.50
2023-02-19T03:02:37.688Z,1.30
2023-02-19T03:06:24.036Z,1.70
2023-02-19T03:10:10.452Z,1.33
2023-02-19T03:14:19.458Z,1.58
2023-02-19T03:18:24.075Z,1.50
2023-02-19T03:22:15.551Z,1.42
2023-02-19T03:26:03.611Z,1.40
2023-02-19T03:29:47.849Z,1.55
2023-02-19T03:33:30.657Z,1.80
2023-02-19T03:37:33.015Z,1.40
2023-02-19T03:41:31.594Z,1.33
2023-02-19T03:45:28.852Z,1.30
2023-02-19T03:49:29.569Z,1.73
2023-02-19T03:53:41.939Z,1.42
2023-02-19T03:57:28.389Z,1.00
2023-02-19T04:01:37.805Z,1.83
2023-02-19T04:05:27.242Z,1.52
2023-02-19T04:09:11.647Z,1.30
2023-02-19T04:13:02.701Z,1.27
2023-02-19T04:16:50.108Z,1.80
2023-02-19T04:20:39.415Z,1.52
2023-02-19T04:24:34.376Z,1.30
2023-02-19T04:28:18.449Z,1.50
2023-02-19T04:32:00.787Z,1.48
2023-02-19T04:35:42.808Z,1.98
2023-02-19T04:39:24.867Z,1.52
2023-02-19T04:43:06.839Z,2.05
2023-02-19T04:46:49.156Z,2.03
2023-02-19T04:50:31.368Z,1.65
2023-02-19T04:54:13.473Z,1.90
2023-02-19T04:57:55.457Z,1.58
2023-02-19T05:01:37.547Z,1.80
2023-02-19T05:05:19.573Z,1.50
2023-02-19T05:09:01.562Z,1.83
2023-02-19T05:12:43.678Z,1.58
2023-02-19T05:16:26.146Z,1.33
2023-02-19T05:20:08.931Z,1.70
2023-02-19T05:23:51.184Z,2.15
2023-02-19T05:27:33.409Z,1.88
2023-02-19T05:31:15.980Z,1.65
2023-02-19T05:34:58.113Z,1.85
2023-02-19T05:38:41.637Z,1.60
2023-02-19T05:42:23.726Z,1.77
2023-02-19T05:46:07.120Z,1.65
2023-02-19T05:49:49.124Z,1.63
2023-02-19T05:53:31.579Z,1.35
2023-02-19T05:57:13.565Z,1.98
2023-02-19T06:00:56.235Z,2.20
2023-02-19T06:04:41.352Z,1.80
2023-02-19T06:08:23.337Z,1.60
2023-02-19T06:12:05.488Z,1.85
2023-02-19T06:15:47.517Z,1.70
2023-02-19T06:19:29.468Z,1.70
2023-02-19T06:23:37.794Z,1.85
2023-02-19T06:27:19.964Z,1.90
2023-02-19T06:31:02.365Z,1.88
2023-02-19T06:34:44.448Z,1.60
2023-02-19T06:38:27.164Z,1.58
2023-02-19T06:42:09.255Z,1.83
2023-02-19T06:45:51.268Z,1.92
2023-02-19T06:49:33.278Z,1.33
2023-02-19T06:53:15.335Z,2.13
2023-02-19T06:56:59.136Z,2.40
2023-02-19T07:00:41.192Z,2.53
2023-02-19T07:04:23.234Z,1.67
2023-02-19T07:08:05.442Z,1.67
2023-02-19T07:11:47.652Z,1.52
2023-02-19T07:15:30.045Z,1.40
2023-02-19T07:19:12.208Z,2.55
2023-02-19T07:22:54.329Z,1.60
2023-02-19T07:26:36.634Z,1.83
2023-02-19T07:30:18.765Z,2.00
2023-02-19T07:34:00.784Z,1.60
2023-02-19T07:37:42.828Z,1.98
2023-02-19T07:41:25.544Z,1.63
2023-02-19T07:45:07.949Z,1.48
2023-02-19T07:48:49.975Z,2.60
2023-02-19T07:52:34.343Z,1.30
2023-02-19T07:56:17.046Z,1.80
2023-02-19T07:59:59.110Z,1.73
2023-02-19T08:03:41.917Z,1.77
2023-02-19T08:07:24.261Z,1.65
2023-02-19T08:11:25.564Z,2.05
2023-02-19T08:15:07.993Z,1.45
2023-02-19T08:18:50.148Z,1.50
2023-02-19T08:22:32.276Z,1.63
2023-02-19T08:26:14.358Z,1.60
2023-02-19T08:29:56.421Z,2.47
2023-02-19T08:33:39.049Z,1.63
2023-02-19T08:37:21.150Z,1.52
2023-02-19T08:41:11.562Z,1.23
2023-02-19T08:44:53.791Z,1.77
2023-02-19T08:48:36.946Z,1.40
2023-02-19T08:52:18.981Z,1.13
2023-02-19T08:56:09.287Z,1.13
2023-02-19T08:59:51.467Z,1.13
2023-02-19T09:03:33.607Z,1.08
2023-02-19T09:07:15.858Z,1.40
2023-02-19T09:11:03.558Z,1.05
2023-02-19T09:14:45.710Z,0.88
2023-02-19T09:18:27.765Z,1.17
2023-02-19T09:22:10.239Z,1.27
2023-02-19T09:26:00.841Z,0.80
2023-02-19T09:29:43.058Z,0.90
2023-02-19T09:33:25.107Z,0.85
2023-02-19T09:37:07.604Z,0.82
2023-02-19T09:40:49.898Z,1.55
2023-02-19T09:44:37.928Z,1.20
2023-02-19T09:48:20.011Z,1.02
2023-02-19T09:52:19.836Z,1.40
2023-02-19T09:56:02.076Z,1.40
2023-02-19T09:59:59.276Z,1.00
2023-02-19T10:07:39.995Z,1.10
2023-02-19T10:11:23.599Z,1.17
2023-02-19T10:15:19.138Z,1.15
2023-02-19T10:19:01.475Z,0.85
2023-02-19T10:22:44.175Z,1.20
2023-02-19T10:26:26.290Z,1.02
2023-02-19T10:30:20.343Z,1.08
2023-02-19T10:34:02.517Z,1.02
2023-02-19T10:37:47.284Z,0.90
2023-02-19T10:41:30.163Z,0.80
2023-02-19T10:45:23.353Z,1.13
2023-02-19T10:49:17.932Z,0.80
2023-02-19T10:53:02.229Z,0.90
2023-02-19T10:56:44.309Z,1.13
2023-02-19T11:00:30.802Z,0.88
2023-02-19T11:04:18.188Z,1.10
2023-02-19T11:08:00.378Z,0.80
2023-02-19T11:11:42.524Z,1.20
2023-02-19T11:15:29.825Z,1.00
2023-02-19T11:19:39.587Z,1.10
2023-02-19T11:23:31.251Z,0.77
2023-02-19T11:27:20.238Z,0.80
2023-02-19T11:31:20.335Z,1.05
2023-02-19T11:35:18.643Z,0.70
2023-02-19T11:39:24.833Z,0.75
2023-02-19T11:43:27.250Z,0.90
2023-02-19T11:47:37.129Z,0.70
2023-02-19T11:51:40.804Z,0.90
2023-02-19T11:55:53.124Z,0.52
2023-02-19T11:59:52.707Z,0.82
2023-02-19T12:03:50.089Z,0.68
2023-02-19T12:07:55.630Z,0.60
2023-02-19T12:12:16.496Z,0.70
2023-02-19T12:16:11.973Z,0.50
2023-02-19T12:20:20.502Z,0.70
2023-02-19T12:24:21.321Z,0.65
2023-02-19T12:28:40.604Z,0.70
2023-02-19T12:32:53.637Z,0.90
2023-02-19T12:36:50.792Z,1.00
2023-02-19T12:40:54.648Z,1.00
2023-02-19T12:44:58.958Z,1.40
2023-02-19T12:48:49.914Z,1.73
2023-02-19T12:52:41.405Z,1.48
2023-02-19T12:56:32.974Z,1.38
2023-02-19T13:00:33.582Z,0.98
2023-02-19T13:04:27.043Z,0.82
2023-02-19T13:08:22.759Z,0.57
2023-02-19T13:12:29.083Z,0.57
2023-02-19T13:16:23.489Z,0.90
2023-02-19T13:20:34.527Z,0.63
2023-02-19T13:24:33.710Z,0.90
2023-02-19T13:28:27.589Z,0.65
2023-02-19T13:32:24.843Z,0.73
2023-02-19T13:36:20.435Z,0.85
2023-02-19T13:40:19.710Z,0.70
2023-02-19T13:44:05.984Z,0.70
2023-02-19T13:48:00.045Z,0.73
2023-02-19T13:51:49.725Z,0.77
2023-02-19T13:56:00.935Z,0.70
2023-02-19T13:59:43.135Z,0.98
2023-02-19T14:03:40.303Z,1.20
2023-02-19T14:07:35.655Z,0.50
2023-02-19T14:11:19.306Z,0.80
2023-02-19T14:15:39.837Z,1.23
2023-02-19T14:19:44.067Z,0.75
2023-02-19T14:23:26.471Z,0.75
2023-02-19T14:27:08.926Z,0.73
2023-02-19T14:31:16.494Z,0.95
2023-02-19T14:34:59.713Z,0.90
2023-02-19T14:38:57.661Z,0.57
2023-02-19T14:42:42.029Z,0.60
2023-02-19T14:46:35.110Z,0.80
2023-02-19T14:50:29.450Z,0.93
2023-02-19T14:54:22.221Z,0.80
2023-02-19T14:58:13.215Z,0.60
2023-02-19T15:02:02.991Z,0.70
2023-02-19T15:06:06.347Z,0.75
2023-02-19T15:09:51.398Z,0.95
2023-02-19T15:13:33.588Z,0.60
2023-02-19T15:17:29.091Z,1.10
2023-02-19T15:21:24.713Z,0.57
2023-02-19T15:25:07.439Z,0.70
2023-02-19T15:28:59.180Z,0.60
2023-02-19T15:32:41.165Z,1.20
2023-02-19T15:36:27.672Z,0.85
2023-02-19T15:40:15.431Z,0.70
2023-02-19T15:44:07.379Z,0.60
2023-02-19T15:48:03.581Z,0.60
2023-02-19T15:51:57.892Z,0.67
2023-02-19T15:55:54.862Z,0.60
2023-02-19T15:59:52.102Z,0.80
2023-02-19T16:03:35.774Z,0.50
2023-02-19T16:07:25.051Z,0.70
2023-02-19T16:11:23.340Z,0.40
2023-02-19T16:15:21.248Z,0.63
2023-02-19T16:19:03.246Z,0.68
2023-02-19T16:22:45.312Z,0.60
2023-02-19T16:26:28.229Z,1.10
2023-02-19T16:30:29.143Z,0.70
2023-02-19T16:34:19.023Z,1.20
2023-02-19T16:38:01.098Z,1.50
2023-02-19T16:41:48.607Z,0.70
2023-02-19T16:45:30.685Z,1.00
2023-02-19T16:49:12.725Z,0.55
2023-02-19T16:52:56.938Z,0.90
2023-02-19T16:56:39.075Z,0.70
2023-02-19T17:00:24.250Z,0.90
2023-02-19T17:04:12.174Z,0.60
2023-02-19T17:07:54.594Z,0.68
2023-02-19T17:11:36.633Z,0.75
2023-02-19T17:15:18.940Z,0.82
2023-02-19T17:19:00.941Z,0.80
2023-02-19T17:22:43.329Z,0.80
2023-02-19T17:26:28.248Z,0.60
2023-02-19T17:30:27.053Z,0.90
2023-02-19T17:34:09.305Z,0.70
2023-02-19T17:37:53.312Z,0.70
2023-02-19T17:41:35.627Z,1.25
2023-02-19T17:45:17.962Z,1.23
2023-02-19T17:48:59.991Z,0.73
2023-02-19T17:52:42.534Z,1.38
2023-02-19T17:56:27.336Z,1.15
2023-02-19T18:00:11.020Z,1.55
2023-02-19T18:03:53.088Z,1.00
2023-02-19T18:07:36.161Z,0.85
2023-02-19T18:11:18.740Z,0.93
2023-02-19T18:15:01.871Z,1.23
2023-02-19T18:18:44.623Z,1.20
2023-02-19T18:22:26.658Z,1.33
2023-02-19T18:26:11.688Z,1.50
2023-02-19T18:29:55.748Z,1.45
2023-02-19T18:33:37.816Z,1.73
2023-02-19T18:37:20.376Z,1.60
2023-02-19T18:41:02.953Z,2.20
2023-02-19T18:44:48.822Z,1.98
2023-02-19T18:48:30.880Z,1.63
2023-02-19T18:52:13.067Z,1.80
2023-02-19T18:55:55.106Z,1.73
2023-02-19T18:59:37.233Z,1.45
2023-02-19T19:03:19.298Z,1.70
2023-02-19T19:07:01.389Z,1.65
2023-02-19T19:10:43.468Z,1.80
2023-02-19T19:14:25.524Z,1.48
2023-02-19T19:18:09.239Z,2.30
2023-02-19T19:21:54.963Z,2.47
2023-02-19T19:25:37.966Z,1.40
2023-02-19T19:29:22.182Z,1.25
2023-02-19T19:33:04.380Z,1.58
2023-02-19T19:36:46.821Z,1.38
2023-02-19T19:40:28.884Z,1.33
2023-02-19T19:44:11.013Z,1.20
2023-02-19T19:47:53.249Z,1.38
2023-02-19T19:51:35.629Z,1.30
2023-02-19T19:55:17.796Z,0.95
2023-02-19T19:58:59.853Z,1.00
2023-02-19T20:02:41.841Z,2.50
2023-02-19T20:06:28.757Z,1.73
2023-02-19T20:10:13.067Z,1.17
2023-02-19T20:13:55.209Z,1.00
2023-02-19T20:17:37.623Z,0.73
2023-02-19T20:21:20.049Z,0.80
2023-02-19T20:25:02.094Z,0.90
2023-02-19T20:28:46.599Z,1.02
2023-02-19T20:32:28.834Z,0.82
2023-02-19T20:36:12.145Z,1.10
2023-02-19T20:39:54.195Z,1.20
2023-02-19T20:43:37.529Z,1.05
2023-02-19T20:47:21.400Z,1.13
2023-02-19T20:51:04.540Z,1.00
2023-02-19T20:54:47.072Z,0.75
2023-02-19T20:58:29.073Z,1.08
2023-02-19T21:02:20.175Z,0.80
2023-02-19T21:06:02.180Z,0.80
2023-02-19T21:09:45.269Z,0.70
2023-02-19T21:13:29.345Z,0.57
2023-02-19T21:17:12.507Z,0.68
2023-02-19T21:20:54.636Z,0.60
2023-02-19T21:24:36.997Z,0.55
2023-02-19T21:28:19.889Z,0.38
2023-02-19T21:32:02.122Z,0.60
2023-02-19T21:35:44.993Z,0.60
2023-02-19T21:39:28.153Z,0.50
2023-02-19T21:43:10.230Z,0.40
2023-02-19T21:46:52.243Z,0.50
2023-02-19T21:50:34.383Z,0.40
2023-02-19T21:54:19.249Z,0.40
2023-02-19T21:58:01.268Z,0.40
2023-02-19T22:01:43.593Z,0.80
2023-02-19T22:05:26.318Z,0.40
2023-02-19T22:09:09.421Z,0.50
2023-02-19T22:12:53.277Z,0.40
2023-02-19T22:16:35.354Z,0.55
2023-02-19T22:20:19.719Z,0.50
2023-02-19T22:24:02.829Z,0.50
2023-02-19T22:27:44.901Z,0.47
2023-02-19T22:31:28.414Z,0.30
2023-02-19T22:35:10.587Z,0.57
2023-02-19T22:38:53.021Z,0.55
2023-02-19T22:42:36.053Z,0.45
2023-02-19T22:46:22.297Z,0.50
2023-02-19T22:50:04.468Z,0.47
2023-02-19T22:53:52.093Z,0.88
2023-02-19T22:57:34.133Z,0.40
2023-02-19T23:01:16.289Z,0.50
2023-02-19T23:04:58.473Z,0.70
2023-02-19T23:08:42.519Z,0.75
2023-02-19T23:12:24.575Z,0.40
2023-02-19T23:16:06.725Z,0.50
2023-02-19T23:19:48.733Z,0.80
2023-02-19T23:23:30.838Z,0.68
2023-02-19T23:27:12.902Z,0.50
2023-02-19T23:30:55.064Z,0.50
2023-02-19T23:34:37.247Z,1.13
2023-02-19T23:38:19.400Z,1.05
2023-02-19T23:42:01.508Z,0.60
2023-02-19T23:45:43.505Z,0.70
2023-02-19T23:49:25.767Z,0.50
2023-02-19T23:53:07.875Z,0.93
2023-02-19T23:56:49.920Z,0.60
